sensor_id;sensor_type;location;lat;lon;timestamp;pressure;altitude;pressure_sealevel;temperature;humidity
3844;BME280;1937;51.444;6.484;2023-08-07T00:01:53;69191.00;;;13.67;100.00
3844;BME280;1937;51.444;6.484;2023-08-07T00:04:31;69200.53;;;13.75;100.00
3844;BME280;1937;51.444;6.484;2023-08-07T00:07:01;69159.72;;;13.75;100.00
3844;BME280;1937;51.444;6.484;2023-08-07T00:09:30;69173.03;;;13.78;100.00
3844;BME280;1937;51.444;6.484;2023-08-07T00:11:59;69170.50;;;13.71;100.00
3844;BME280;1937;51.444;6.484;2023-08-07T00:14:26;69204.47;;;13.80;100.00
3844;BME280;1937;51.444;6.484;2023-08-07T00:16:53;69139.41;;;13.78;100.00
3844;BME280;1937;51.444;6.484;2023-08-07T00:19:22;69168.06;;;13.76;100.00
3844;BME280;1937;51.444;6.484;2023-08-07T00:21:48;69180.25;;;13.71;100.00
3844;BME280;1937;51.444;6.484;2023-08-07T00:24:15;69180.41;;;13.75;100.00
3844;BME280;1937;51.444;6.484;2023-08-07T00:26:44;69139.63;;;13.69;100.00
3844;BME280;1937;51.444;6.484;2023-08-07T00:29:17;69175.63;;;13.78;100.00
3844;BME280;1937;51.444;6.484;2023-08-07T00:31:47;69144.13;;;13.82;100.00
3844;BME280;1937;51.444;6.484;2023-08-07T00:34:21;69121.91;;;13.72;100.00
3844;BME280;1937;51.444;6.484;2023-08-07T00:36:56;69125.25;;;13.77;100.00
3844;BME280;1937;51.444;6.484;2023-08-07T00:39:26;69175.41;;;13.80;100.00
3844;BME280;1937;51.444;6.484;2023-08-07T00:41:59;69069.03;;;13.58;100.00
3844;BME280;1937;51.444;6.484;2023-08-07T00:44:27;69191.38;;;13.76;100.00
3844;BME280;1937;51.444;6.484;2023-08-07T00:46:54;69155.13;;;13.76;100.00
3844;BME280;1937;51.444;6.484;2023-08-07T00:49:22;69128.06;;;13.75;100.00
3844;BME280;1937;51.444;6.484;2023-08-07T00:51:49;69241.22;;;14.01;100.00
3844;BME280;1937;51.444;6.484;2023-08-07T00:54:18;69230.94;;;13.87;100.00
3844;BME280;1937;51.444;6.484;2023-08-07T00:56:45;69181.31;;;13.91;100.00
3844;BME280;1937;51.444;6.484;2023-08-07T00:59:29;69096.78;;;13.77;100.00
3844;BME280;1937;51.444;6.484;2023-08-07T01:01:56;69077.91;;;13.72;100.00
3844;BME280;1937;51.444;6.484;2023-08-07T01:04:26;69156.66;;;13.86;100.00
3844;BME280;1937;51.444;6.484;2023-08-07T01:06:53;69186.28;;;13.93;100.00
3844;BME280;1937;51.444;6.484;2023-08-07T01:09:29;69080.78;;;13.87;100.00
3844;BME280;1937;51.444;6.484;2023-08-07T01:12:02;69109.53;;;14.03;100.00
3844;BME280;1937;51.444;6.484;2023-08-07T01:14:49;69074.09;;;13.77;100.00
3844;BME280;1937;51.444;6.484;2023-08-07T01:17:22;69064.38;;;13.71;100.00
3844;BME280;1937;51.444;6.484;2023-08-07T01:19:53;69103.19;;;13.71;100.00
3844;BME280;1937;51.444;6.484;2023-08-07T01:22:21;69092.72;;;13.60;100.00
3844;BME280;1937;51.444;6.484;2023-08-07T01:24:49;69125.97;;;13.58;100.00
3844;BME280;1937;51.444;6.484;2023-08-07T01:27:35;69213.91;;;13.64;100.00
3844;BME280;1937;51.444;6.484;2023-08-07T01:30:14;69161.44;;;13.46;100.00
3844;BME280;1937;51.444;6.484;2023-08-07T01:32:56;69180.75;;;13.47;100.00
3844;BME280;1937;51.444;6.484;2023-08-07T01:35:29;69213.38;;;13.50;100.00
3844;BME280;1937;51.444;6.484;2023-08-07T01:38:02;69217.78;;;13.45;100.00
3844;BME280;1937;51.444;6.484;2023-08-07T01:40:45;69216.81;;;13.36;100.00
3844;BME280;1937;51.444;6.484;2023-08-07T01:43:19;69201.47;;;13.40;100.00
3844;BME280;1937;51.444;6.484;2023-08-07T01:45:46;69182.03;;;13.28;100.00
3844;BME280;1937;51.444;6.484;2023-08-07T01:48:20;69236.53;;;13.33;100.00
3844;BME280;1937;51.444;6.484;2023-08-07T01:50:48;69230.97;;;13.30;100.00
3844;BME280;1937;51.444;6.484;2023-08-07T01:53:31;69287.03;;;13.38;100.00
3844;BME280;1937;51.444;6.484;2023-08-07T01:55:58;69286.84;;;13.34;100.00
3844;BME280;1937;51.444;6.484;2023-08-07T01:58:24;69313.91;;;13.35;100.00
3844;BME280;1937;51.444;6.484;2023-08-07T02:00:56;69320.06;;;13.38;100.00
3844;BME280;1937;51.444;6.484;2023-08-07T02:03:22;69287.28;;;13.23;100.00
3844;BME280;1937;51.444;6.484;2023-08-07T02:05:52;69253.28;;;13.14;100.00
3844;BME280;1937;51.444;6.484;2023-08-07T02:08:28;69298.22;;;13.30;100.00
3844;BME280;1937;51.444;6.484;2023-08-07T02:11:11;69280.72;;;13.31;100.00
3844;BME280;1937;51.444;6.484;2023-08-07T02:13:40;69354.72;;;13.34;100.00
3844;BME280;1937;51.444;6.484;2023-08-07T02:16:11;69279.13;;;13.27;100.00
3844;BME280;1937;51.444;6.484;2023-08-07T02:18:45;69292.66;;;13.28;100.00
3844;BME280;1937;51.444;6.484;2023-08-07T02:21:21;69304.56;;;13.31;100.00
3844;BME280;1937;51.444;6.484;2023-08-07T02:23:56;69376.97;;;13.44;100.00
3844;BME280;1937;51.444;6.484;2023-08-07T02:26:24;69269.38;;;13.28;100.00
3844;BME280;1937;51.444;6.484;2023-08-07T02:28:53;69285.69;;;13.26;100.00
3844;BME280;1937;51.444;6.484;2023-08-07T02:31:20;69340.78;;;13.31;100.00
3844;BME280;1937;51.444;6.484;2023-08-07T02:33:58;69299.22;;;13.20;100.00
3844;BME280;1937;51.444;6.484;2023-08-07T02:36:39;69295.44;;;13.26;100.00
3844;BME280;1937;51.444;6.484;2023-08-07T02:39:32;69325.47;;;13.36;100.00
3844;BME280;1937;51.444;6.484;2023-08-07T02:42:05;69374.97;;;13.51;100.00
3844;BME280;1937;51.444;6.484;2023-08-07T02:44:42;69335.41;;;13.40;100.00
3844;BME280;1937;51.444;6.484;2023-08-07T02:47:15;69386.53;;;13.46;100.00
3844;BME280;1937;51.444;6.484;2023-08-07T02:50:01;69381.34;;;13.52;100.00
3844;BME280;1937;51.444;6.484;2023-08-07T02:52:59;69344.16;;;13.43;100.00
3844;BME280;1937;51.444;6.484;2023-08-07T02:55:32;69339.19;;;13.47;100.00
3844;BME280;1937;51.444;6.484;2023-08-07T02:57:59;69342.75;;;13.37;100.00
3844;BME280;1937;51.444;6.484;2023-08-07T03:00:29;69370.59;;;13.57;100.00
3844;BME280;1937;51.444;6.484;2023-08-07T03:02:55;69352.50;;;13.50;100.00
3844;BME280;1937;51.444;6.484;2023-08-07T03:05:34;69316.50;;;13.48;100.00
3844;BME280;1937;51.444;6.484;2023-08-07T03:08:00;69347.53;;;13.55;100.00
3844;BME280;1937;51.444;6.484;2023-08-07T03:10:38;69399.25;;;13.61;100.00
3844;BME280;1937;51.444;6.484;2023-08-07T03:13:11;69329.59;;;13.52;100.00
3844;BME280;1937;51.444;6.484;2023-08-07T03:15:39;69349.72;;;13.52;100.00
3844;BME280;1937;51.444;6.484;2023-08-07T03:18:22;69279.25;;;13.45;100.00
3844;BME280;1937;51.444;6.484;2023-08-07T03:21:01;69339.97;;;13.52;100.00
3844;BME280;1937;51.444;6.484;2023-08-07T03:23:32;69273.72;;;13.36;100.00
3844;BME280;1937;51.444;6.484;2023-08-07T03:26:15;69277.13;;;13.34;100.00
3844;BME280;1937;51.444;6.484;2023-08-07T03:28:45;69195.22;;;13.13;100.00
3844;BME280;1937;51.444;6.484;2023-08-07T03:31:20;69236.97;;;13.22;100.00
3844;BME280;1937;51.444;6.484;2023-08-07T03:33:49;69270.38;;;13.24;100.00
3844;BME280;1937;51.444;6.484;2023-08-07T03:36:26;69303.41;;;13.30;100.00
3844;BME280;1937;51.444;6.484;2023-08-07T03:39:03;69261.41;;;13.30;100.00
3844;BME280;1937;51.444;6.484;2023-08-07T03:41:41;69352.31;;;13.45;100.00
3844;BME280;1937;51.444;6.484;2023-08-07T03:44:18;69322.47;;;13.46;100.00
3844;BME280;1937;51.444;6.484;2023-08-07T03:46:54;69320.66;;;13.45;100.00
3844;BME280;1937;51.444;6.484;2023-08-07T03:49:27;69328.22;;;13.53;100.00
3844;BME280;1937;51.444;6.484;2023-08-07T03:52:08;69318.47;;;13.54;100.00
3844;BME280;1937;51.444;6.484;2023-08-07T03:54:36;69283.06;;;13.46;100.00
3844;BME280;1937;51.444;6.484;2023-08-07T03:57:10;69353.50;;;13.53;100.00
3844;BME280;1937;51.444;6.484;2023-08-07T03:59:50;69315.47;;;13.51;100.00
3844;BME280;1937;51.444;6.484;2023-08-07T04:02:39;69328.81;;;13.54;100.00
3844;BME280;1937;51.444;6.484;2023-08-07T04:08:12;69315.84;;;13.61;100.00
3844;BME280;1937;51.444;6.484;2023-08-07T04:11:00;69285.59;;;13.59;100.00
3844;BME280;1937;51.444;6.484;2023-08-07T04:13:30;69268.91;;;13.51;100.00
3844;BME280;1937;51.444;6.484;2023-08-07T04:16:01;69319.84;;;13.60;100.00
3844;BME280;1937;51.444;6.484;2023-08-07T04:18:34;69244.63;;;13.48;100.00
3844;BME280;1937;51.444;6.484;2023-08-07T04:21:06;69289.56;;;13.65;100.00
3844;BME280;1937;51.444;6.484;2023-08-07T04:23:51;69215.50;;;13.61;100.00
3844;BME280;1937;51.444;6.484;2023-08-07T04:26:43;69213.53;;;13.62;100.00
3844;BME280;1937;51.444;6.484;2023-08-07T04:29:20;69160.38;;;13.63;100.00
3844;BME280;1937;51.444;6.484;2023-08-07T04:32:07;69150.50;;;13.45;100.00
3844;BME280;1937;51.444;6.484;2023-08-07T04:34:53;69093.16;;;13.49;100.00
3844;BME280;1937;51.444;6.484;2023-08-07T04:37:38;69144.50;;;13.53;100.00
3844;BME280;1937;51.444;6.484;2023-08-07T04:40:21;69136.94;;;13.51;100.00
3844;BME280;1937;51.444;6.484;2023-08-07T04:43:05;69158.28;;;13.45;100.00
3844;BME280;1937;51.444;6.484;2023-08-07T04:45:39;69105.94;;;13.45;100.00
3844;BME280;1937;51.444;6.484;2023-08-07T04:48:14;69125.22;;;13.46;100.00
3844;BME280;1937;51.444;6.484;2023-08-07T04:50:44;69170.00;;;13.44;100.00
3844;BME280;1937;51.444;6.484;2023-08-07T04:53:18;69241.59;;;13.66;100.00
3844;BME280;1937;51.444;6.484;2023-08-07T04:58:49;69190.53;;;13.40;100.00
3844;BME280;1937;51.444;6.484;2023-08-07T05:02:00;69134.88;;;13.28;100.00
3844;BME280;1937;51.444;6.484;2023-08-07T05:04:28;69194.38;;;13.28;100.00
3844;BME280;1937;51.444;6.484;2023-08-07T05:07:10;69200.69;;;13.42;100.00
3844;BME280;1937;51.444;6.484;2023-08-07T05:09:56;69229.53;;;13.38;100.00
3844;BME280;1937;51.444;6.484;2023-08-07T05:15:41;69208.69;;;13.27;100.00
3844;BME280;1937;51.444;6.484;2023-08-07T05:18:21;69187.63;;;13.11;100.00
3844;BME280;1937;51.444;6.484;2023-08-07T05:21:14;69204.34;;;13.25;100.00
3844;BME280;1937;51.444;6.484;2023-08-07T05:23:51;69191.81;;;13.15;100.00
3844;BME280;1937;51.444;6.484;2023-08-07T05:26:34;69278.94;;;13.23;100.00
3844;BME280;1937;51.444;6.484;2023-08-07T05:29:07;69216.47;;;13.20;100.00
3844;BME280;1937;51.444;6.484;2023-08-07T05:31:36;69290.47;;;13.30;100.00
3844;BME280;1937;51.444;6.484;2023-08-07T05:34:14;69311.13;;;13.37;100.00
3844;BME280;1937;51.444;6.484;2023-08-07T05:37:02;69248.94;;;13.13;100.00
3844;BME280;1937;51.444;6.484;2023-08-07T05:39:51;69274.16;;;13.25;100.00
3844;BME280;1937;51.444;6.484;2023-08-07T05:42:26;69262.41;;;13.20;100.00
3844;BME280;1937;51.444;6.484;2023-08-07T05:45:23;69342.97;;;13.29;100.00
3844;BME280;1937;51.444;6.484;2023-08-07T05:48:06;69353.31;;;13.29;100.00
3844;BME280;1937;51.444;6.484;2023-08-07T05:50:44;69292.88;;;13.19;100.00
3844;BME280;1937;51.444;6.484;2023-08-07T05:53:24;69326.88;;;13.28;100.00
3844;BME280;1937;51.444;6.484;2023-08-07T05:56:16;69361.88;;;13.34;100.00
3844;BME280;1937;51.444;6.484;2023-08-07T05:59:02;69348.16;;;13.29;100.00
3844;BME280;1937;51.444;6.484;2023-08-07T06:01:43;69279.53;;;13.17;100.00
3844;BME280;1937;51.444;6.484;2023-08-07T06:04:17;69377.81;;;13.23;100.00
3844;BME280;1937;51.444;6.484;2023-08-07T06:09:55;69379.19;;;13.35;100.00
3844;BME280;1937;51.444;6.484;2023-08-07T06:12:38;69376.00;;;13.35;100.00
3844;BME280;1937;51.444;6.484;2023-08-07T06:15:20;69318.34;;;13.17;100.00
3844;BME280;1937;51.444;6.484;2023-08-07T06:17:58;69399.69;;;13.31;100.00
3844;BME280;1937;51.444;6.484;2023-08-07T06:23:18;69389.34;;;13.24;100.00
3844;BME280;1937;51.444;6.484;2023-08-07T06:25:51;69459.38;;;13.42;100.00
3844;BME280;1937;51.444;6.484;2023-08-07T06:28:19;69461.97;;;13.42;100.00
3844;BME280;1937;51.444;6.484;2023-08-07T06:31:01;69448.25;;;13.37;100.00
3844;BME280;1937;51.444;6.484;2023-08-07T06:33:38;69484.25;;;13.39;100.00
3844;BME280;1937;51.444;6.484;2023-08-07T06:36:15;69522.28;;;13.53;100.00
3844;BME280;1937;51.444;6.484;2023-08-07T06:38:51;69514.72;;;13.51;100.00
3844;BME280;1937;51.444;6.484;2023-08-07T06:42:00;69537.81;;;13.60;100.00
3844;BME280;1937;51.444;6.484;2023-08-07T06:44:47;69482.88;;;13.46;100.00
3844;BME280;1937;51.444;6.484;2023-08-07T06:47:19;69476.09;;;13.36;100.00
3844;BME280;1937;51.444;6.484;2023-08-07T06:56:30;69586.38;;;13.53;100.00
3844;BME280;1937;51.444;6.484;2023-08-07T06:59:20;69483.47;;;13.40;100.00
3844;BME280;1937;51.444;6.484;2023-08-07T07:02:00;69517.09;;;13.40;100.00
3844;BME280;1937;51.444;6.484;2023-08-07T07:04:32;69556.53;;;13.54;100.00
3844;BME280;1937;51.444;6.484;2023-08-07T07:07:08;69540.78;;;13.49;100.00
3844;BME280;1937;51.444;6.484;2023-08-07T07:09:52;69572.63;;;13.61;100.00
3844;BME280;1937;51.444;6.484;2023-08-07T07:15:46;69555.50;;;13.51;100.00
3844;BME280;1937;51.444;6.484;2023-08-07T07:23:55;69499.97;;;13.43;100.00
3844;BME280;1937;51.444;6.484;2023-08-07T07:26:42;69584.78;;;13.56;100.00
3844;BME280;1937;51.444;6.484;2023-08-07T07:29:25;69600.72;;;13.65;100.00
3844;BME280;1937;51.444;6.484;2023-08-07T07:32:17;69590.38;;;13.65;100.00
3844;BME280;1937;51.444;6.484;2023-08-07T07:38:48;69616.47;;;13.70;100.00
3844;BME280;1937;51.444;6.484;2023-08-07T07:41:44;69683.00;;;13.84;100.00
3844;BME280;1937;51.444;6.484;2023-08-07T07:44:23;69663.69;;;13.77;100.00
3844;BME280;1937;51.444;6.484;2023-08-07T07:47:21;69723.25;;;13.83;100.00
3844;BME280;1937;51.444;6.484;2023-08-07T07:50:24;69686.03;;;13.93;100.00
3844;BME280;1937;51.444;6.484;2023-08-07T07:53:04;69710.31;;;13.97;100.00
3844;BME280;1937;51.444;6.484;2023-08-07T07:55:38;69706.75;;;14.00;100.00
3844;BME280;1937;51.444;6.484;2023-08-07T07:58:27;69689.22;;;13.94;100.00
3844;BME280;1937;51.444;6.484;2023-08-07T08:01:30;69767.94;;;14.10;100.00
3844;BME280;1937;51.444;6.484;2023-08-07T08:07:48;69834.84;;;14.43;100.00
3844;BME280;1937;51.444;6.484;2023-08-07T08:10:25;69823.66;;;14.44;100.00
3844;BME280;1937;51.444;6.484;2023-08-07T08:12:57;69829.91;;;14.54;100.00
3844;BME280;1937;51.444;6.484;2023-08-07T08:15:26;69950.88;;;14.84;100.00
3844;BME280;1937;51.444;6.484;2023-08-07T08:20:53;69906.44;;;15.07;100.00
3844;BME280;1937;51.444;6.484;2023-08-07T08:23:33;69851.34;;;15.00;100.00
3844;BME280;1937;51.444;6.484;2023-08-07T08:26:01;69910.69;;;15.24;100.00
3844;BME280;1937;51.444;6.484;2023-08-07T08:28:28;69918.13;;;15.48;100.00
3844;BME280;1937;51.444;6.484;2023-08-07T08:30:54;69951.53;;;15.65;100.00
3844;BME280;1937;51.444;6.484;2023-08-07T08:33:21;70000.72;;;15.93;100.00
3844;BME280;1937;51.444;6.484;2023-08-07T08:35:47;70193.41;;;16.44;100.00
3844;BME280;1937;51.444;6.484;2023-08-07T08:38:14;70172.75;;;16.84;100.00
3844;BME280;1937;51.444;6.484;2023-08-07T08:40:43;70065.47;;;16.76;99.23
3844;BME280;1937;51.444;6.484;2023-08-07T08:43:12;69911.16;;;16.58;99.84
3844;BME280;1937;51.444;6.484;2023-08-07T08:45:39;70045.63;;;16.99;100.00
3844;BME280;1937;51.444;6.484;2023-08-07T08:48:08;69912.16;;;16.81;97.74
3844;BME280;1937;51.444;6.484;2023-08-07T08:50:39;69875.16;;;16.74;98.38
3844;BME280;1937;51.444;6.484;2023-08-07T08:53:07;69785.53;;;16.66;98.94
3844;BME280;1937;51.444;6.484;2023-08-07T08:55:35;69797.53;;;16.57;98.49
3844;BME280;1937;51.444;6.484;2023-08-07T08:58:03;69760.94;;;16.65;96.05
3844;BME280;1937;51.444;6.484;2023-08-07T09:00:30;69602.78;;;16.48;94.75
3844;BME280;1937;51.444;6.484;2023-08-07T09:02:59;69582.94;;;16.51;95.55
3844;BME280;1937;51.444;6.484;2023-08-07T09:05:27;69470.31;;;16.28;93.74
3844;BME280;1937;51.444;6.484;2023-08-07T09:07:54;69402.16;;;16.04;94.27
3844;BME280;1937;51.444;6.484;2023-08-07T09:10:22;69389.38;;;16.02;95.16
3844;BME280;1937;51.444;6.484;2023-08-07T09:12:53;69430.59;;;15.92;96.50
3844;BME280;1937;51.444;6.484;2023-08-07T09:15:23;69260.25;;;15.40;96.97
3844;BME280;1937;51.444;6.484;2023-08-07T09:17:51;69200.06;;;15.02;99.89
3844;BME280;1937;51.444;6.484;2023-08-07T09:20:18;69214.88;;;14.73;100.00
3844;BME280;1937;51.444;6.484;2023-08-07T09:22:44;69218.34;;;14.65;100.00
3844;BME280;1937;51.444;6.484;2023-08-07T09:25:11;69278.91;;;14.68;100.00
3844;BME280;1937;51.444;6.484;2023-08-07T09:27:39;69299.09;;;14.61;100.00
3844;BME280;1937;51.444;6.484;2023-08-07T09:30:07;69394.69;;;14.89;100.00
3844;BME280;1937;51.444;6.484;2023-08-07T09:32:36;69333.69;;;14.84;100.00
3844;BME280;1937;51.444;6.484;2023-08-07T09:35:05;69496.13;;;15.11;100.00
3844;BME280;1937;51.444;6.484;2023-08-07T09:37:32;69419.84;;;15.22;100.00
3844;BME280;1937;51.444;6.484;2023-08-07T09:40:00;69589.38;;;15.71;100.00
3844;BME280;1937;51.444;6.484;2023-08-07T09:42:30;69806.97;;;16.47;100.00
3844;BME280;1937;51.444;6.484;2023-08-07T09:44:57;69779.03;;;16.92;93.52
3844;BME280;1937;51.444;6.484;2023-08-07T09:47:24;69875.25;;;17.62;94.48
3844;BME280;1937;51.444;6.484;2023-08-07T09:49:54;69822.75;;;17.97;88.74
3844;BME280;1937;51.444;6.484;2023-08-07T09:52:21;69612.09;;;17.69;87.68
3844;BME280;1937;51.444;6.484;2023-08-07T09:54:48;69471.19;;;17.53;87.41
3844;BME280;1937;51.444;6.484;2023-08-07T09:57:14;69419.63;;;17.42;87.56
3844;BME280;1937;51.444;6.484;2023-08-07T09:59:41;69484.66;;;17.49;88.31
3844;BME280;1937;51.444;6.484;2023-08-07T10:02:07;69610.66;;;17.94;87.46
3844;BME280;1937;51.444;6.484;2023-08-07T10:04:36;69835.97;;;19.05;84.48
3844;BME280;1937;51.444;6.484;2023-08-07T10:07:05;69923.84;;;19.62;80.68
3844;BME280;1937;51.444;6.484;2023-08-07T10:09:31;69620.50;;;19.17;78.41
3844;BME280;1937;51.444;6.484;2023-08-07T10:11:58;69544.31;;;19.21;79.55
3844;BME280;1937;51.444;6.484;2023-08-07T10:14:25;69563.50;;;19.42;75.86
3844;BME280;1937;51.444;6.484;2023-08-07T10:16:53;69375.13;;;18.77;80.46
3844;BME280;1937;51.444;6.484;2023-08-07T10:19:20;69197.31;;;18.30;77.18
3844;BME280;1937;51.444;6.484;2023-08-07T10:21:47;69257.09;;;18.55;76.67
3844;BME280;1937;51.444;6.484;2023-08-07T10:24:15;69266.09;;;18.56;75.49
3844;BME280;1937;51.444;6.484;2023-08-07T10:26:44;69071.81;;;18.06;76.13
3844;BME280;1937;51.444;6.484;2023-08-07T10:29:14;69138.03;;;18.24;76.09
3844;BME280;1937;51.444;6.484;2023-08-07T10:31:44;69118.50;;;18.30;76.03
3844;BME280;1937;51.444;6.484;2023-08-07T10:34:12;68970.31;;;17.99;74.87
3844;BME280;1937;51.444;6.484;2023-08-07T10:36:39;69097.16;;;18.23;75.65
3844;BME280;1937;51.444;6.484;2023-08-07T10:39:06;69264.22;;;18.94;75.51
3844;BME280;1937;51.444;6.484;2023-08-07T10:41:39;69257.56;;;19.17;71.57
3844;BME280;1937;51.444;6.484;2023-08-07T10:44:17;69216.56;;;19.38;68.58
3844;BME280;1937;51.444;6.484;2023-08-07T10:46:48;69198.66;;;19.30;69.56
3844;BME280;1937;51.444;6.484;2023-08-07T10:49:34;69132.34;;;19.11;70.46
3844;BME280;1937;51.444;6.484;2023-08-07T10:52:03;69049.00;;;18.93;68.20
3844;BME280;1937;51.444;6.484;2023-08-07T10:54:29;69166.09;;;19.40;68.22
3844;BME280;1937;51.444;6.484;2023-08-07T10:56:59;69276.91;;;19.96;70.84
3844;BME280;1937;51.444;6.484;2023-08-07T10:59:29;69356.44;;;20.42;65.20
3844;BME280;1937;51.444;6.484;2023-08-07T11:01:55;69248.06;;;20.19;62.95
3844;BME280;1937;51.444;6.484;2023-08-07T11:04:22;69328.91;;;20.59;63.17
3844;BME280;1937;51.444;6.484;2023-08-07T11:06:51;69253.22;;;20.41;62.49
3844;BME280;1937;51.444;6.484;2023-08-07T11:09:18;68993.09;;;19.50;62.69
3844;BME280;1937;51.444;6.484;2023-08-07T11:11:46;68949.13;;;19.15;64.80
3844;BME280;1937;51.444;6.484;2023-08-07T11:14:15;68750.13;;;18.36;65.27
3844;BME280;1937;51.444;6.484;2023-08-07T11:16:42;68851.72;;;18.58;66.98
3844;BME280;1937;51.444;6.484;2023-08-07T11:19:09;68815.56;;;18.50;66.44
3844;BME280;1937;51.444;6.484;2023-08-07T11:21:36;68879.34;;;18.77;66.90
3844;BME280;1937;51.444;6.484;2023-08-07T11:24:03;68867.91;;;18.86;65.31
3844;BME280;1937;51.444;6.484;2023-08-07T11:26:30;68965.38;;;19.15;67.25
3844;BME280;1937;51.444;6.484;2023-08-07T11:28:56;68834.31;;;18.72;65.60
3844;BME280;1937;51.444;6.484;2023-08-07T11:31:25;68900.00;;;18.95;64.86
3844;BME280;1937;51.444;6.484;2023-08-07T11:33:54;68880.72;;;18.88;68.31
3844;BME280;1937;51.444;6.484;2023-08-07T11:36:23;68943.22;;;19.10;66.85
3844;BME280;1937;51.444;6.484;2023-08-07T11:38:50;69012.69;;;19.45;65.15
3844;BME280;1937;51.444;6.484;2023-08-07T11:41:17;69207.50;;;20.24;64.17
3844;BME280;1937;51.444;6.484;2023-08-07T11:43:44;69077.78;;;19.89;65.42
3844;BME280;1937;51.444;6.484;2023-08-07T11:46:13;69190.97;;;20.26;63.29
3844;BME280;1937;51.444;6.484;2023-08-07T11:48:43;69124.16;;;20.27;60.65
3844;BME280;1937;51.444;6.484;2023-08-07T11:51:10;69243.09;;;20.70;62.44
3844;BME280;1937;51.444;6.484;2023-08-07T11:53:38;69169.50;;;20.41;61.39
3844;BME280;1937;51.444;6.484;2023-08-07T11:56:06;69145.22;;;20.47;59.38
3844;BME280;1937;51.444;6.484;2023-08-07T11:58:35;69088.09;;;20.12;61.65
3844;BME280;1937;51.444;6.484;2023-08-07T12:01:06;69109.13;;;20.16;60.39
3844;BME280;1937;51.444;6.484;2023-08-07T12:03:35;69018.75;;;19.86;61.72
3844;BME280;1937;51.444;6.484;2023-08-07T12:06:06;68896.50;;;19.39;61.07
3844;BME280;1937;51.444;6.484;2023-08-07T12:08:34;69074.13;;;20.09;62.30
3844;BME280;1937;51.444;6.484;2023-08-07T12:11:02;69097.00;;;20.35;62.53
3844;BME280;1937;51.444;6.484;2023-08-07T12:13:31;69080.63;;;20.14;60.99
3844;BME280;1937;51.444;6.484;2023-08-07T12:16:01;69028.97;;;20.03;59.38
3844;BME280;1937;51.444;6.484;2023-08-07T12:18:30;68966.91;;;19.77;60.46
3844;BME280;1937;51.444;6.484;2023-08-07T12:20:57;69079.34;;;20.24;61.21
3844;BME280;1937;51.444;6.484;2023-08-07T12:23:26;69047.38;;;20.24;59.42
3844;BME280;1937;51.444;6.484;2023-08-07T12:25:53;69095.81;;;20.34;60.54
3844;BME280;1937;51.444;6.484;2023-08-07T12:28:20;69000.63;;;19.95;59.25
3844;BME280;1937;51.444;6.484;2023-08-07T12:30:47;68946.44;;;19.84;59.59
3844;BME280;1937;51.444;6.484;2023-08-07T12:33:14;69025.00;;;20.09;59.57
3844;BME280;1937;51.444;6.484;2023-08-07T12:35:41;69059.88;;;20.39;61.05
3844;BME280;1937;51.444;6.484;2023-08-07T12:38:08;69020.13;;;20.12;59.83
3844;BME280;1937;51.444;6.484;2023-08-07T12:40:36;69005.53;;;20.08;59.94
3844;BME280;1937;51.444;6.484;2023-08-07T12:43:03;68933.94;;;19.85;60.04
3844;BME280;1937;51.444;6.484;2023-08-07T12:45:30;69045.97;;;20.40;56.98
3844;BME280;1937;51.444;6.484;2023-08-07T12:47:57;69022.13;;;20.27;59.21
3844;BME280;1937;51.444;6.484;2023-08-07T12:50:24;68909.66;;;19.75;59.48
3844;BME280;1937;51.444;6.484;2023-08-07T12:52:51;69006.66;;;20.36;56.40
3844;BME280;1937;51.444;6.484;2023-08-07T12:55:18;69000.91;;;20.40;56.74
3844;BME280;1937;51.444;6.484;2023-08-07T12:57:46;68978.38;;;20.16;58.11
3844;BME280;1937;51.444;6.484;2023-08-07T13:00:15;68894.91;;;19.78;58.45
3844;BME280;1937;51.444;6.484;2023-08-07T13:02:43;69000.38;;;20.28;57.82
3844;BME280;1937;51.444;6.484;2023-08-07T13:05:11;69137.81;;;20.85;57.82
3844;BME280;1937;51.444;6.484;2023-08-07T13:07:38;69136.03;;;20.84;56.86
3844;BME280;1937;51.444;6.484;2023-08-07T13:10:06;69223.69;;;21.32;54.46
3844;BME280;1937;51.444;6.484;2023-08-07T13:12:35;69198.56;;;21.29;54.21
3844;BME280;1937;51.444;6.484;2023-08-07T13:15:05;69067.31;;;20.79;55.14
3844;BME280;1937;51.444;6.484;2023-08-07T13:17:33;69126.41;;;20.98;57.94
3844;BME280;1937;51.444;6.484;2023-08-07T13:20:01;69079.53;;;20.80;59.56
3844;BME280;1937;51.444;6.484;2023-08-07T13:22:33;69160.28;;;20.89;59.52
3844;BME280;1937;51.444;6.484;2023-08-07T13:24:59;69045.94;;;20.56;58.28
3844;BME280;1937;51.444;6.484;2023-08-07T13:27:26;69146.69;;;20.93;56.30
3844;BME280;1937;51.444;6.484;2023-08-07T13:29:52;69149.81;;;21.05;55.53
3844;BME280;1937;51.444;6.484;2023-08-07T13:32:20;69290.81;;;21.72;55.28
3844;BME280;1937;51.444;6.484;2023-08-07T13:34:47;69342.59;;;21.98;52.78
3844;BME280;1937;51.444;6.484;2023-08-07T13:37:13;69127.75;;;21.08;54.65
3844;BME280;1937;51.444;6.484;2023-08-07T13:39:40;69158.50;;;21.35;51.40
3844;BME280;1937;51.444;6.484;2023-08-07T13:42:07;69217.50;;;21.60;52.77
3844;BME280;1937;51.444;6.484;2023-08-07T13:44:35;69368.00;;;22.15;52.64
3844;BME280;1937;51.444;6.484;2023-08-07T13:47:02;69300.31;;;22.11;48.80
3844;BME280;1937;51.444;6.484;2023-08-07T13:49:30;69312.66;;;22.17;49.20
3844;BME280;1937;51.444;6.484;2023-08-07T13:51:57;69114.31;;;21.37;49.44
3844;BME280;1937;51.444;6.484;2023-08-07T13:54:23;69176.47;;;21.63;50.25
3844;BME280;1937;51.444;6.484;2023-08-07T13:56:50;69082.94;;;21.42;51.51
3844;BME280;1937;51.444;6.484;2023-08-07T13:59:16;69122.50;;;21.55;50.28
3844;BME280;1937;51.444;6.484;2023-08-07T14:01:43;69016.00;;;20.91;50.83
3844;BME280;1937;51.444;6.484;2023-08-07T14:04:09;69031.63;;;21.18;50.34
3844;BME280;1937;51.444;6.484;2023-08-07T14:06:36;68951.13;;;20.71;51.17
3844;BME280;1937;51.444;6.484;2023-08-07T14:09:04;68878.09;;;20.49;50.25
3844;BME280;1937;51.444;6.484;2023-08-07T14:11:31;68912.78;;;20.54;50.75
3844;BME280;1937;51.444;6.484;2023-08-07T14:13:57;68998.38;;;20.96;50.58
3844;BME280;1937;51.444;6.484;2023-08-07T14:16:25;68951.38;;;20.69;51.10
3844;BME280;1937;51.444;6.484;2023-08-07T14:18:51;68969.81;;;20.94;50.65
3844;BME280;1937;51.444;6.484;2023-08-07T14:21:18;68925.22;;;20.69;49.93
3844;BME280;1937;51.444;6.484;2023-08-07T14:23:46;68837.81;;;20.37;51.44
3844;BME280;1937;51.444;6.484;2023-08-07T14:26:14;68928.44;;;20.70;51.38